Terminal Aerodrome Forecast
Issued by NWS

Home | Current Version | Previous Version | Graphics & Text | Print | Product List | Glossary On
Versions: 1 2 3 4 5 6 7 8 9 10 11 12 13 14 15 16 17 18 19 20
000
FTUS43 KGRB 280953 AAB
TAFRHI
TAF AMD
KRHI 280953Z 2810/2906 00000KT 5SM BR SCT003
      TEMPO 2810/2813 1/2SM FG BKN003
     FM281400 06005KT P6SM SKC=

USA.gov is the U.S. government's official web portal to all federal, state and local government web resources and services.